This is the latest recevied weather packets stored in our database for station/object N4DRV. If no packets are shown the sender has not sent any weather packets the latest 10 day(s).
| Time | Temp. | Humidity | Pressure | Rain* | Wind** | Luminosity | Snow |
|---|---|---|---|---|---|---|---|
| 1777364147 | 16.67° C | 73% | 1020.5 hPa | 0 mm | - | - | - |
| 1777362923 | 16.67° C | 73% | 1020.5 hPa | 0 mm | - | - | - |
| 1777354524 | 16.67° C | 77% | 1021.9 hPa | 0 mm | - | - | - |
| 1777350335 | 16.67° C | 76% | 1021.3 hPa | 0 mm | - | - | - |
| 1777342542 | 19.44° C | 69% | 1021.2 hPa | 0 mm | - | - | - |
| 1777341333 | 19.44° C | 69% | 1020.8 hPa | 0 mm | - | - | - |
| 1777329929 | 22.78° C | 60% | 1020.1 hPa | 0 mm | - | - | - |
| 1777329328 | 23.33° C | 59% | 1020.1 hPa | 0 mm | - | - | - |
| 1777323332 | 22.78° C | 61% | 1020.1 hPa | 0 mm | - | - | - |
| 1777322149 | 22.78° C | 62% | 1020.3 hPa | 0 mm | - | - | - |
| 1777319720 | 22.22° C | 62% | 1020.7 hPa | 0 mm | - | - | - |
| 1777311945 | 21.11° C | 64% | 1021.5 hPa | 0 mm | - | - | - |
| 1777311328 | 21.67° C | 63% | 1021.6 hPa | 0 mm | - | - | - |
| 1777310125 | 22.22° C | 64% | 1022 hPa | 0 mm | - | - | - |
| 1777297532 | 16.11° C | 77% | 1022.9 hPa | 0 mm | - | - | - |
| 1777295149 | 15.56° C | 80% | 1022.5 hPa | 0 mm | - | - | - |
| 1777293925 | 15° C | 82% | 1022.2 hPa | 0 mm | - | - | - |
| 1777289717 | 14.44° C | 84% | 1021.8 hPa | 0 mm | - | - | - |
| 1777289154 | 14.44° C | 84% | 1021.8 hPa | 0 mm | - | - | - |
| 1777278931 | 16.67° C | 82% | 1019.9 hPa | 0 mm | - | - | - |
| 1777278329 | 17.22° C | 83% | 1019.4 hPa | 0 mm | - | - | - |
| 1777275920 | 17.22° C | 85% | 1019.3 hPa | 0 mm | - | - | - |
| 1777269326 | 18.33° C | 85% | 1018.4 hPa | 0 mm | - | - | - |
| 1777266342 | 17.78° C | 87% | 1017.9 hPa | 0 mm | - | - | - |
| 1777262749 | 17.22° C | 91% | 1017.2 hPa | 0 mm | - | - | - |
* Rain latest hour (hover to see other rain measurements)
** Current wind speed in m/s (hover to see current wind gust speed)